sensor_id;sensor_type;location;lat;lon;timestamp;pressure;altitude;pressure_sealevel;temperature;humidity
14790;BME280;7486;51.010;10.366;2024-03-23T00:54:14;97451.56;;;7.20;75.55
14790;BME280;7486;51.010;10.366;2024-03-23T00:56:59;97445.06;;;6.96;77.05
14790;BME280;7486;51.010;10.366;2024-03-23T00:59:46;97424.38;;;6.67;77.55
14790;BME280;7486;51.010;10.366;2024-03-23T01:02:30;97440.19;;;6.74;77.66
14790;BME280;7486;51.010;10.366;2024-03-23T01:05:16;97437.56;;;6.74;77.42
14790;BME280;7486;51.010;10.366;2024-03-23T01:08:01;97435.34;;;6.77;77.39
14790;BME280;7486;51.010;10.366;2024-03-23T01:11:14;97424.59;;;6.79;77.17
14790;BME280;7486;51.010;10.366;2024-03-23T01:13:59;97417.94;;;6.76;76.47
14790;BME280;7486;51.010;10.366;2024-03-23T01:16:44;97419.56;;;6.77;76.81
14790;BME280;7486;51.010;10.366;2024-03-23T01:19:30;97425.28;;;5.79;81.17
14790;BME280;7486;51.010;10.366;2024-03-23T01:22:17;97419.69;;;5.20;87.59
14790;BME280;7486;51.010;10.366;2024-03-23T01:25:01;97416.50;;;5.59;86.84
14790;BME280;7486;51.010;10.366;2024-03-23T01:27:48;97424.31;;;5.46;86.68
14790;BME280;7486;51.010;10.366;2024-03-23T01:30:33;97412.47;;;5.63;84.53
14790;BME280;7486;51.010;10.366;2024-03-23T01:33:18;97417.84;;;5.48;84.57
14790;BME280;7486;51.010;10.366;2024-03-23T01:36:08;97437.63;;;5.44;83.90
14790;BME280;7486;51.010;10.366;2024-03-23T01:38:55;97415.84;;;4.95;83.88
14790;BME280;7486;51.010;10.366;2024-03-23T01:41:43;97428.94;;;5.16;83.82
14790;BME280;7486;51.010;10.366;2024-03-23T01:44:29;97415.41;;;4.91;84.26
14790;BME280;7486;51.010;10.366;2024-03-23T01:47:13;97408.44;;;5.26;82.51
14790;BME280;7486;51.010;10.366;2024-03-23T01:49:59;97394.91;;;5.29;82.22
14790;BME280;7486;51.010;10.366;2024-03-23T01:52:45;97377.59;;;5.41;81.55
14790;BME280;7486;51.010;10.366;2024-03-23T01:55:33;97372.63;;;5.53;80.86
14790;BME280;7486;51.010;10.366;2024-03-23T01:58:17;97350.19;;;5.50;80.02
14790;BME280;7486;51.010;10.366;2024-03-23T02:01:05;97355.16;;;5.39;80.05
14790;BME280;7486;51.010;10.366;2024-03-23T02:03:49;97337.63;;;5.46;79.48
14790;BME280;7486;51.010;10.366;2024-03-23T02:06:34;97336.44;;;5.55;79.05
14790;BME280;7486;51.010;10.366;2024-03-23T02:09:22;97338.09;;;5.62;78.75
14790;BME280;7486;51.010;10.366;2024-03-23T02:12:12;97333.13;;;5.81;77.68
14790;BME280;7486;51.010;10.366;2024-03-23T02:14:58;97319.84;;;5.89;77.30
14790;BME280;7486;51.010;10.366;2024-03-23T02:17:43;97332.28;;;5.67;76.79
14790;BME280;7486;51.010;10.366;2024-03-23T02:20:29;97322.97;;;5.64;77.40
14790;BME280;7486;51.010;10.366;2024-03-23T02:23:16;97310.06;;;5.69;77.34
14790;BME280;7486;51.010;10.366;2024-03-23T02:26:05;97326.31;;;5.45;78.18
14790;BME280;7486;51.010;10.366;2024-03-23T02:28:51;97330.09;;;5.30;78.54
14790;BME280;7486;51.010;10.366;2024-03-23T02:31:38;97324.47;;;5.39;78.52
14790;BME280;7486;51.010;10.366;2024-03-23T02:34:25;97312.78;;;5.48;78.28
14790;BME280;7486;51.010;10.366;2024-03-23T02:37:12;97306.97;;;5.59;76.84
14790;BME280;7486;51.010;10.366;2024-03-23T02:39:59;97307.81;;;5.66;77.06
14790;BME280;7486;51.010;10.366;2024-03-23T02:42:44;97291.25;;;5.73;76.52
14790;BME280;7486;51.010;10.366;2024-03-23T02:45:30;97110.53;;;4.61;76.16
14790;BME280;7486;51.010;10.366;2024-03-23T02:48:16;97277.94;;;5.67;75.72
14790;BME280;7486;51.010;10.366;2024-03-23T02:51:03;97301.38;;;5.76;75.87
14790;BME280;7486;51.010;10.366;2024-03-23T02:53:48;97302.31;;;5.55;76.81
14790;BME280;7486;51.010;10.366;2024-03-23T02:56:33;97281.78;;;5.78;76.44
14790;BME280;7486;51.010;10.366;2024-03-23T02:59:19;97266.44;;;5.75;75.58
14790;BME280;7486;51.010;10.366;2024-03-23T03:02:07;97285.13;;;5.52;77.16
14790;BME280;7486;51.010;10.366;2024-03-23T03:04:52;97271.81;;;5.47;78.09
14790;BME280;7486;51.010;10.366;2024-03-23T03:07:39;97265.38;;;5.63;77.66
14790;BME280;7486;51.010;10.366;2024-03-23T03:10:25;97245.78;;;5.65;76.85
14790;BME280;7486;51.010;10.366;2024-03-23T03:13:10;97254.72;;;5.78;77.21
14790;BME280;7486;51.010;10.366;2024-03-23T03:15:54;97260.38;;;5.88;76.32
14790;BME280;7486;51.010;10.366;2024-03-23T03:18:42;97255.03;;;5.55;76.79
14790;BME280;7486;51.010;10.366;2024-03-23T03:21:26;97240.91;;;5.62;77.60
14790;BME280;7486;51.010;10.366;2024-03-23T03:24:11;97252.50;;;5.88;76.99
14790;BME280;7486;51.010;10.366;2024-03-23T03:26:55;97227.88;;;6.08;75.96
14790;BME280;7486;51.010;10.366;2024-03-23T03:29:40;97237.78;;;6.26;74.71
14790;BME280;7486;51.010;10.366;2024-03-23T03:32:27;97238.94;;;5.78;75.95
14790;BME280;7486;51.010;10.366;2024-03-23T03:35:12;97193.59;;;5.49;77.41
14790;BME280;7486;51.010;10.366;2024-03-23T03:37:56;97207.75;;;5.48;77.26
14790;BME280;7486;51.010;10.366;2024-03-23T03:40:42;97215.09;;;4.78;80.78
14790;BME280;7486;51.010;10.366;2024-03-23T03:43:28;97231.84;;;4.49;84.00
14790;BME280;7486;51.010;10.366;2024-03-23T03:46:15;97212.00;;;5.02;82.48
14790;BME280;7486;51.010;10.366;2024-03-23T03:49:00;97256.50;;;5.64;79.70
14790;BME280;7486;51.010;10.366;2024-03-23T03:51:47;97253.84;;;5.51;79.68
14790;BME280;7486;51.010;10.366;2024-03-23T03:54:33;97173.63;;;5.01;81.11
14790;BME280;7486;51.010;10.366;2024-03-23T03:57:22;97165.69;;;5.29;80.83
14790;BME280;7486;51.010;10.366;2024-03-23T04:00:07;97149.84;;;5.09;82.21
14790;BME280;7486;51.010;10.366;2024-03-23T04:02:55;97136.09;;;5.00;82.84
14790;BME280;7486;51.010;10.366;2024-03-23T04:05:39;97109.38;;;4.84;83.00
14790;BME280;7486;51.010;10.366;2024-03-23T04:08:25;97135.22;;;4.87;83.19
14790;BME280;7486;51.010;10.366;2024-03-23T04:11:10;97127.84;;;5.10;82.92
14790;BME280;7486;51.010;10.366;2024-03-23T04:13:57;97111.09;;;5.11;82.44
14790;BME280;7486;51.010;10.366;2024-03-23T04:16:44;97126.53;;;5.40;81.52
14790;BME280;7486;51.010;10.366;2024-03-23T04:19:30;97122.94;;;5.54;81.27
14790;BME280;7486;51.010;10.366;2024-03-23T04:22:15;97094.63;;;5.63;80.46
14790;BME280;7486;51.010;10.366;2024-03-23T04:25:00;97085.34;;;5.74;79.41
14790;BME280;7486;51.010;10.366;2024-03-23T04:27:45;97086.53;;;5.91;79.11
14790;BME280;7486;51.010;10.366;2024-03-23T04:30:30;97077.00;;;6.03;78.49
14790;BME280;7486;51.010;10.366;2024-03-23T04:33:19;97066.31;;;6.04;77.96
14790;BME280;7486;51.010;10.366;2024-03-23T04:36:07;97073.56;;;6.15;77.93
14790;BME280;7486;51.010;10.366;2024-03-23T04:38:54;97083.25;;;6.22;77.80
14790;BME280;7486;51.010;10.366;2024-03-23T04:41:42;97065.25;;;6.25;77.73
14790;BME280;7486;51.010;10.366;2024-03-23T04:44:26;97057.78;;;6.22;77.65
14790;BME280;7486;51.010;10.366;2024-03-23T04:47:11;97051.94;;;6.07;77.91
14790;BME280;7486;51.010;10.366;2024-03-23T04:49:57;97049.38;;;5.74;78.82
14790;BME280;7486;51.010;10.366;2024-03-23T04:52:44;97056.03;;;5.70;80.05
14790;BME280;7486;51.010;10.366;2024-03-23T04:55:31;97061.19;;;4.98;83.39
14790;BME280;7486;51.010;10.366;2024-03-23T04:58:17;97070.56;;;4.59;86.89
14790;BME280;7486;51.010;10.366;2024-03-23T05:01:07;97060.84;;;4.53;87.47
14790;BME280;7486;51.010;10.366;2024-03-23T05:03:55;97070.22;;;4.76;86.96
14790;BME280;7486;51.010;10.366;2024-03-23T05:06:39;97068.53;;;4.55;87.79
14790;BME280;7486;51.010;10.366;2024-03-23T05:09:28;97080.44;;;4.16;89.96
14790;BME280;7486;51.010;10.366;2024-03-23T05:12:15;97086.31;;;4.25;90.61
14790;BME280;7486;51.010;10.366;2024-03-23T05:15:04;97072.09;;;4.41;90.05
14790;BME280;7486;51.010;10.366;2024-03-23T05:17:49;97078.13;;;4.35;90.38
14790;BME280;7486;51.010;10.366;2024-03-23T05:20:36;97068.19;;;3.19;96.18
14790;BME280;7486;51.010;10.366;2024-03-23T05:23:21;97097.91;;;3.11;98.24
14790;BME280;7486;51.010;10.366;2024-03-23T05:26:06;97047.50;;;3.03;98.03
14790;BME280;7486;51.010;10.366;2024-03-23T05:28:51;97088.28;;;3.33;97.40
14790;BME280;7486;51.010;10.366;2024-03-23T05:31:38;97041.06;;;2.84;98.56
14790;BME280;7486;51.010;10.366;2024-03-23T05:34:23;97105.75;;;3.11;99.07
14790;BME280;7486;51.010;10.366;2024-03-23T05:37:12;97104.19;;;2.96;100.00
14790;BME280;7486;51.010;10.366;2024-03-23T05:39:57;97091.78;;;3.26;100.00
14790;BME280;7486;51.010;10.366;2024-03-23T05:42:41;97077.44;;;2.79;100.00
14790;BME280;7486;51.010;10.366;2024-03-23T05:45:30;97088.00;;;3.07;100.00
14790;BME280;7486;51.010;10.366;2024-03-23T05:48:14;97092.38;;;3.21;100.00
14790;BME280;7486;51.010;10.366;2024-03-23T05:50:59;97091.66;;;3.12;99.66
14790;BME280;7486;51.010;10.366;2024-03-23T05:53:44;97095.97;;;2.99;100.00
14790;BME280;7486;51.010;10.366;2024-03-23T05:56:33;97096.38;;;2.81;100.00
14790;BME280;7486;51.010;10.366;2024-03-23T05:59:22;97096.34;;;2.60;100.00
14790;BME280;7486;51.010;10.366;2024-03-23T06:02:08;97111.16;;;2.74;100.00
14790;BME280;7486;51.010;10.366;2024-03-23T06:04:52;97061.41;;;2.17;100.00
14790;BME280;7486;51.010;10.366;2024-03-23T06:07:37;97102.94;;;2.41;100.00
14790;BME280;7486;51.010;10.366;2024-03-23T06:10:22;97106.69;;;2.68;100.00
14790;BME280;7486;51.010;10.366;2024-03-23T06:13:09;97120.69;;;2.46;100.00
14790;BME280;7486;51.010;10.366;2024-03-23T06:15:56;97123.72;;;2.64;100.00
14790;BME280;7486;51.010;10.366;2024-03-23T06:18:44;97133.34;;;3.14;100.00
14790;BME280;7486;51.010;10.366;2024-03-23T06:21:32;97136.72;;;3.08;98.31
14790;BME280;7486;51.010;10.366;2024-03-23T06:24:19;97132.81;;;2.68;96.19
14790;BME280;7486;51.010;10.366;2024-03-23T06:27:07;97170.44;;;2.52;96.17
14790;BME280;7486;51.010;10.366;2024-03-23T06:29:51;97192.50;;;2.35;98.16
14790;BME280;7486;51.010;10.366;2024-03-23T06:32:36;97194.47;;;2.19;98.87
14790;BME280;7486;51.010;10.366;2024-03-23T06:35:21;97199.50;;;2.20;96.96
14790;BME280;7486;51.010;10.366;2024-03-23T06:38:07;97204.13;;;1.95;96.72
14790;BME280;7486;51.010;10.366;2024-03-23T06:40:54;97198.66;;;1.68;96.21
14790;BME280;7486;51.010;10.366;2024-03-23T06:43:38;97217.63;;;1.99;94.63
14790;BME280;7486;51.010;10.366;2024-03-23T06:46:27;97224.84;;;1.97;94.34
14790;BME280;7486;51.010;10.366;2024-03-23T06:49:12;97229.16;;;1.67;94.67
14790;BME280;7486;51.010;10.366;2024-03-23T06:51:57;97246.41;;;1.45;94.71
14790;BME280;7486;51.010;10.366;2024-03-23T06:54:44;97257.69;;;1.07;94.07
14790;BME280;7486;51.010;10.366;2024-03-23T06:57:36;97261.22;;;1.22;94.54
14790;BME280;7486;51.010;10.366;2024-03-23T07:00:21;97273.34;;;1.38;93.80
14790;BME280;7486;51.010;10.366;2024-03-23T07:03:05;97277.28;;;1.34;94.25
14790;BME280;7486;51.010;10.366;2024-03-23T07:05:50;97282.94;;;1.45;94.16
14790;BME280;7486;51.010;10.366;2024-03-23T07:08:34;97274.28;;;1.14;93.97
14790;BME280;7486;51.010;10.366;2024-03-23T07:11:20;97294.63;;;1.27;94.92
14790;BME280;7486;51.010;10.366;2024-03-23T07:14:07;97294.69;;;1.49;94.82
14790;BME280;7486;51.010;10.366;2024-03-23T07:16:52;97297.19;;;1.66;94.17
14790;BME280;7486;51.010;10.366;2024-03-23T07:19:38;97298.16;;;1.64;93.14
14790;BME280;7486;51.010;10.366;2024-03-23T07:22:23;97299.97;;;1.64;93.15
14790;BME280;7486;51.010;10.366;2024-03-23T07:25:10;97309.28;;;1.58;93.37
14790;BME280;7486;51.010;10.366;2024-03-23T07:27:58;97315.03;;;1.54;93.81
14790;BME280;7486;51.010;10.366;2024-03-23T07:30:43;97320.06;;;1.55;93.74
14790;BME280;7486;51.010;10.366;2024-03-23T07:33:30;97330.34;;;1.57;92.23
14790;BME280;7486;51.010;10.366;2024-03-23T07:36:17;97334.19;;;1.38;93.32
14790;BME280;7486;51.010;10.366;2024-03-23T07:39:01;97318.75;;;1.21;93.16
14790;BME280;7486;51.010;10.366;2024-03-23T07:41:48;97338.56;;;0.99;93.76
14790;BME280;7486;51.010;10.366;2024-03-23T07:44:33;97342.28;;;1.13;94.18
14790;BME280;7486;51.010;10.366;2024-03-23T07:47:18;97362.59;;;1.25;92.17
14790;BME280;7486;51.010;10.366;2024-03-23T07:50:02;97369.81;;;1.07;92.77
14790;BME280;7486;51.010;10.366;2024-03-23T07:52:49;97367.84;;;1.17;94.34
14790;BME280;7486;51.010;10.366;2024-03-23T07:55:37;97346.94;;;1.33;92.49
14790;BME280;7486;51.010;10.366;2024-03-23T07:58:22;97368.47;;;1.27;93.01
14790;BME280;7486;51.010;10.366;2024-03-23T08:01:11;97377.63;;;1.07;93.28
14790;BME280;7486;51.010;10.366;2024-03-23T08:03:56;97370.47;;;1.09;92.90
14790;BME280;7486;51.010;10.366;2024-03-23T08:06:44;97342.97;;;0.98;93.08
14790;BME280;7486;51.010;10.366;2024-03-23T08:09:30;97375.94;;;1.30;94.12
14790;BME280;7486;51.010;10.366;2024-03-23T08:12:18;97383.28;;;1.35;93.71
14790;BME280;7486;51.010;10.366;2024-03-23T08:15:03;97369.47;;;1.26;94.35
14790;BME280;7486;51.010;10.366;2024-03-23T08:17:50;97384.25;;;1.34;93.89
14790;BME280;7486;51.010;10.366;2024-03-23T08:20:34;97404.00;;;1.36;94.93
14790;BME280;7486;51.010;10.366;2024-03-23T08:23:20;97424.81;;;1.52;94.29
14790;BME280;7486;51.010;10.366;2024-03-23T08:26:09;97423.84;;;1.37;93.39
14790;BME280;7486;51.010;10.366;2024-03-23T08:28:55;97435.78;;;1.40;94.15
14790;BME280;7486;51.010;10.366;2024-03-23T08:31:45;97432.78;;;1.51;94.26
14790;BME280;7486;51.010;10.366;2024-03-23T08:34:34;97434.63;;;1.42;93.22
14790;BME280;7486;51.010;10.366;2024-03-23T08:37:18;97442.78;;;1.31;95.83
14790;BME280;7486;51.010;10.366;2024-03-23T08:40:06;97448.44;;;1.51;94.83
14790;BME280;7486;51.010;10.366;2024-03-23T08:42:51;97464.44;;;1.56;93.46
14790;BME280;7486;51.010;10.366;2024-03-23T08:45:36;97436.22;;;1.51;93.46
14790;BME280;7486;51.010;10.366;2024-03-23T08:48:20;97474.81;;;1.80;92.19
14790;BME280;7486;51.010;10.366;2024-03-23T08:51:06;97477.28;;;1.74;92.53
14790;BME280;7486;51.010;10.366;2024-03-23T08:53:56;97479.31;;;1.94;92.50
14790;BME280;7486;51.010;10.366;2024-03-23T08:56:40;97449.78;;;1.94;91.50
14790;BME280;7486;51.010;10.366;2024-03-23T08:59:25;97447.78;;;1.96;91.40
14790;BME280;7486;51.010;10.366;2024-03-23T09:02:10;97455.84;;;2.17;91.35
14790;BME280;7486;51.010;10.366;2024-03-23T09:04:55;97468.00;;;2.63;90.80
14790;BME280;7486;51.010;10.366;2024-03-23T09:07:40;97482.25;;;2.84;90.63
14790;BME280;7486;51.010;10.366;2024-03-23T09:10:39;97476.81;;;2.62;89.52
14790;BME280;7486;51.010;10.366;2024-03-23T09:13:24;97480.53;;;2.68;90.46
14790;BME280;7486;51.010;10.366;2024-03-23T09:16:11;97476.44;;;2.74;87.98
14790;BME280;7486;51.010;10.366;2024-03-23T09:18:56;97476.47;;;2.65;88.19
14790;BME280;7486;51.010;10.366;2024-03-23T09:21:47;97485.63;;;2.84;90.05
14790;BME280;7486;51.010;10.366;2024-03-23T09:24:35;97495.88;;;2.94;88.90
14790;BME280;7486;51.010;10.366;2024-03-23T09:27:20;97503.78;;;3.31;90.11
14790;BME280;7486;51.010;10.366;2024-03-23T09:30:06;97502.91;;;3.39;87.96
14790;BME280;7486;51.010;10.366;2024-03-23T09:32:56;97508.53;;;3.05;86.76
14790;BME280;7486;51.010;10.366;2024-03-23T09:35:45;97491.09;;;3.20;86.81
14790;BME280;7486;51.010;10.366;2024-03-23T09:38:30;97514.75;;;3.27;86.32
14790;BME280;7486;51.010;10.366;2024-03-23T09:41:15;97507.59;;;3.43;84.42
14790;BME280;7486;51.010;10.366;2024-03-23T09:44:05;97511.91;;;3.13;85.00
14790;BME280;7486;51.010;10.366;2024-03-23T09:46:50;97516.69;;;2.87;85.93
14790;BME280;7486;51.010;10.366;2024-03-23T09:49:37;97526.00;;;2.90;86.51
14790;BME280;7486;51.010;10.366;2024-03-23T09:52:23;97524.34;;;2.89;85.84
14790;BME280;7486;51.010;10.366;2024-03-23T09:55:11;97526.38;;;2.79;86.91
14790;BME280;7486;51.010;10.366;2024-03-23T09:57:57;97507.16;;;2.72;87.22
14790;BME280;7486;51.010;10.366;2024-03-23T10:00:42;97513.34;;;2.71;87.26
14790;BME280;7486;51.010;10.366;2024-03-23T10:03:29;97518.53;;;3.01;86.16
14790;BME280;7486;51.010;10.366;2024-03-23T10:06:21;97513.84;;;2.97;85.13
14790;BME280;7486;51.010;10.366;2024-03-23T10:09:16;97508.53;;;3.28;85.60
14790;BME280;7486;51.010;10.366;2024-03-23T10:12:17;97518.06;;;3.43;83.55
14790;BME280;7486;51.010;10.366;2024-03-23T10:15:15;97523.47;;;3.56;84.45
14790;BME280;7486;51.010;10.366;2024-03-23T10:18:19;97528.22;;;3.76;85.34
14790;BME280;7486;51.010;10.366;2024-03-23T10:23:54;97524.44;;;3.93;81.30
14790;BME280;7486;51.010;10.366;2024-03-23T10:26:40;97517.03;;;3.82;81.91
14790;BME280;7486;51.010;10.366;2024-03-23T10:29:26;97518.66;;;3.83;80.80
14790;BME280;7486;51.010;10.366;2024-03-23T10:32:13;97523.34;;;4.02;80.82
14790;BME280;7486;51.010;10.366;2024-03-23T10:35:16;97526.88;;;4.09;79.66
14790;BME280;7486;51.010;10.366;2024-03-23T10:38:07;97522.00;;;4.06;76.74
14790;BME280;7486;51.010;10.366;2024-03-23T10:40:52;97526.41;;;3.91;77.07
14790;BME280;7486;51.010;10.366;2024-03-23T10:43:46;97537.13;;;3.52;80.58
14790;BME280;7486;51.010;10.366;2024-03-23T10:46:32;97535.78;;;3.56;81.00
14790;BME280;7486;51.010;10.366;2024-03-23T10:49:17;97531.00;;;3.59;80.39
14790;BME280;7486;51.010;10.366;2024-03-23T10:52:05;97533.91;;;3.79;80.74
14790;BME280;7486;51.010;10.366;2024-03-23T10:54:55;97526.41;;;3.61;80.69
14790;BME280;7486;51.010;10.366;2024-03-23T10:57:51;97536.06;;;3.76;81.22
14790;BME280;7486;51.010;10.366;2024-03-23T11:00:38;97529.13;;;3.83;81.48
14790;BME280;7486;51.010;10.366;2024-03-23T11:03:36;97536.88;;;3.91;81.41
14790;BME280;7486;51.010;10.366;2024-03-23T11:06:37;97544.00;;;3.68;82.04
14790;BME280;7486;51.010;10.366;2024-03-23T11:15:14;97538.41;;;3.56;85.54
14790;BME280;7486;51.010;10.366;2024-03-23T11:18:06;97542.66;;;3.72;83.66
14790;BME280;7486;51.010;10.366;2024-03-23T11:20:56;97534.81;;;3.86;83.02
14790;BME280;7486;51.010;10.366;2024-03-23T11:23:41;97534.91;;;3.93;81.95
14790;BME280;7486;51.010;10.366;2024-03-23T11:26:27;97536.59;;;4.15;81.55
14790;BME280;7486;51.010;10.366;2024-03-23T11:29:14;97536.84;;;4.49;81.03
14790;BME280;7486;51.010;10.366;2024-03-23T11:32:02;97539.38;;;4.57;80.49
14790;BME280;7486;51.010;10.366;2024-03-23T11:34:48;97528.06;;;4.93;79.54
14790;BME280;7486;51.010;10.366;2024-03-23T11:37:41;97516.63;;;5.22;77.65
14790;BME280;7486;51.010;10.366;2024-03-23T11:40:26;97527.81;;;5.30;76.99
14790;BME280;7486;51.010;10.366;2024-03-23T11:43:17;97520.31;;;5.55;78.37
14790;BME280;7486;51.010;10.366;2024-03-23T11:46:05;97501.22;;;5.67;75.34
14790;BME280;7486;51.010;10.366;2024-03-23T11:48:56;97521.03;;;5.98;74.11
14790;BME280;7486;51.010;10.366;2024-03-23T11:51:43;97514.03;;;6.11;73.92
14790;BME280;7486;51.010;10.366;2024-03-23T11:54:27;97498.53;;;6.30;72.28
14790;BME280;7486;51.010;10.366;2024-03-23T11:57:14;97504.59;;;6.30;73.00
14790;BME280;7486;51.010;10.366;2024-03-23T11:59:58;97484.03;;;6.47;73.94
14790;BME280;7486;51.010;10.366;2024-03-23T12:02:46;97441.78;;;6.01;71.90
14790;BME280;7486;51.010;10.366;2024-03-23T12:05:34;97483.78;;;6.42;69.28
14790;BME280;7486;51.010;10.366;2024-03-23T12:08:30;97493.25;;;6.23;68.54
14790;BME280;7486;51.010;10.366;2024-03-23T12:11:16;97457.47;;;6.29;69.18
14790;BME280;7486;51.010;10.366;2024-03-23T12:14:02;97463.56;;;6.36;67.66
14790;BME280;7486;51.010;10.366;2024-03-23T12:16:56;97470.09;;;6.59;67.10
14790;BME280;7486;51.010;10.366;2024-03-23T12:19:41;97458.47;;;6.95;66.02
14790;BME280;7486;51.010;10.366;2024-03-23T12:22:30;97455.59;;;6.83;63.88
14790;BME280;7486;51.010;10.366;2024-03-23T12:25:16;97446.69;;;6.84;65.53
14790;BME280;7486;51.010;10.366;2024-03-23T12:28:01;97447.31;;;7.39;63.48
14790;BME280;7486;51.010;10.366;2024-03-23T12:30:46;97446.28;;;7.46;61.90
14790;BME280;7486;51.010;10.366;2024-03-23T12:33:32;97441.63;;;7.09;63.28
14790;BME280;7486;51.010;10.366;2024-03-23T12:36:18;97449.09;;;7.51;64.59
14790;BME280;7486;51.010;10.366;2024-03-23T12:39:03;97423.75;;;7.57;60.98
14790;BME280;7486;51.010;10.366;2024-03-23T12:41:48;97431.00;;;7.75;60.28
14790;BME280;7486;51.010;10.366;2024-03-23T12:44:35;97430.38;;;7.86;57.72
14790;BME280;7486;51.010;10.366;2024-03-23T12:47:24;97438.81;;;8.07;59.27
14790;BME280;7486;51.010;10.366;2024-03-23T12:50:11;97412.56;;;7.68;57.42
14790;BME280;7486;51.010;10.366;2024-03-23T12:52:55;97435.13;;;7.44;59.45
14790;BME280;7486;51.010;10.366;2024-03-23T12:55:40;97414.50;;;7.02;55.73
14790;BME280;7486;51.010;10.366;2024-03-23T12:58:25;97447.09;;;6.88;57.10
14790;BME280;7486;51.010;10.366;2024-03-23T13:01:09;97449.91;;;6.80;58.68
14790;BME280;7486;51.010;10.366;2024-03-23T13:03:54;97457.53;;;6.61;61.68
14790;BME280;7486;51.010;10.366;2024-03-23T13:06:38;97446.56;;;6.45;61.47
14790;BME280;7486;51.010;10.366;2024-03-23T13:09:23;97485.63;;;5.94;63.84
14790;BME280;7486;51.010;10.366;2024-03-23T13:12:12;97504.22;;;4.94;68.15
14790;BME280;7486;51.010;10.366;2024-03-23T13:14:56;97496.28;;;4.66;70.04
14790;BME280;7486;51.010;10.366;2024-03-23T13:17:41;97501.63;;;4.37;72.84
14790;BME280;7486;51.010;10.366;2024-03-23T13:20:27;97512.25;;;4.50;76.00
14790;BME280;7486;51.010;10.366;2024-03-23T13:23:11;97516.69;;;4.86;77.23
14790;BME280;7486;51.010;10.366;2024-03-23T13:25:56;97506.91;;;4.80;78.89
14790;BME280;7486;51.010;10.366;2024-03-23T13:28:41;97506.47;;;4.55;79.37
14790;BME280;7486;51.010;10.366;2024-03-23T13:31:26;97489.56;;;4.79;78.83
14790;BME280;7486;51.010;10.366;2024-03-23T13:34:11;97493.19;;;5.20;75.17
14790;BME280;7486;51.010;10.366;2024-03-23T13:36:56;97503.03;;;5.39;73.24
14790;BME280;7486;51.010;10.366;2024-03-23T13:39:41;97500.94;;;5.28;72.67
14790;BME280;7486;51.010;10.366;2024-03-23T13:42:25;97496.97;;;5.39;72.01
14790;BME280;7486;51.010;10.366;2024-03-23T13:45:09;97486.59;;;5.58;71.41
14790;BME280;7486;51.010;10.366;2024-03-23T13:47:54;97496.19;;;5.45;70.26
14790;BME280;7486;51.010;10.366;2024-03-23T13:50:38;97494.59;;;5.72;71.18
14790;BME280;7486;51.010;10.366;2024-03-23T13:53:24;97495.34;;;5.65;70.24
14790;BME280;7486;51.010;10.366;2024-03-23T13:56:09;97492.47;;;5.88;69.57
14790;BME280;7486;51.010;10.366;2024-03-23T13:58:57;97480.78;;;5.63;68.14
14790;BME280;7486;51.010;10.366;2024-03-23T14:01:42;97493.25;;;5.54;68.58
14790;BME280;7486;51.010;10.366;2024-03-23T14:04:26;97495.50;;;5.57;68.90
14790;BME280;7486;51.010;10.366;2024-03-23T14:07:11;97502.25;;;5.73;68.19
14790;BME280;7486;51.010;10.366;2024-03-23T14:09:55;97497.81;;;5.74;66.31
14790;BME280;7486;51.010;10.366;2024-03-23T14:12:40;97498.38;;;5.69;67.00
14790;BME280;7486;51.010;10.366;2024-03-23T14:15:24;97493.31;;;5.61;66.77
14790;BME280;7486;51.010;10.366;2024-03-23T14:18:09;97494.69;;;5.57;65.56
14790;BME280;7486;51.010;10.366;2024-03-23T14:20:59;97498.69;;;5.53;65.30
14790;BME280;7486;51.010;10.366;2024-03-23T14:23:43;97491.50;;;5.61;64.59
14790;BME280;7486;51.010;10.366;2024-03-23T14:26:28;97490.25;;;5.57;63.69
14790;BME280;7486;51.010;10.366;2024-03-23T14:29:13;97487.00;;;5.55;64.25
14790;BME280;7486;51.010;10.366;2024-03-23T14:31:57;97482.03;;;5.39;63.93
14790;BME280;7486;51.010;10.366;2024-03-23T14:34:42;97482.53;;;5.28;65.57
14790;BME280;7486;51.010;10.366;2024-03-23T14:37:27;97488.81;;;5.27;64.90
14790;BME280;7486;51.010;10.366;2024-03-23T14:40:15;97505.03;;;4.74;68.70
14790;BME280;7486;51.010;10.366;2024-03-23T14:42:59;97500.28;;;3.97;73.57
14790;BME280;7486;51.010;10.366;2024-03-23T14:46:09;97496.16;;;4.03;76.50
14790;BME280;7486;51.010;10.366;2024-03-23T14:48:54;97499.06;;;3.93;79.96
14790;BME280;7486;51.010;10.366;2024-03-23T14:51:40;97492.16;;;3.48;78.20
14790;BME280;7486;51.010;10.366;2024-03-23T14:54:25;97505.00;;;3.58;79.28
14790;BME280;7486;51.010;10.366;2024-03-23T14:57:09;97505.09;;;3.94;78.77
14790;BME280;7486;51.010;10.366;2024-03-23T14:59:54;97498.94;;;4.16;79.00
14790;BME280;7486;51.010;10.366;2024-03-23T15:02:39;97472.09;;;4.14;79.85
14790;BME280;7486;51.010;10.366;2024-03-23T15:05:23;97506.63;;;4.53;78.60
14790;BME280;7486;51.010;10.366;2024-03-23T15:08:08;97454.91;;;4.26;77.59
14790;BME280;7486;51.010;10.366;2024-03-23T15:10:58;97503.16;;;4.67;78.08
14790;BME280;7486;51.010;10.366;2024-03-23T15:13:49;97485.91;;;4.80;77.11
14790;BME280;7486;51.010;10.366;2024-03-23T15:16:34;97446.59;;;4.58;76.13
14790;BME280;7486;51.010;10.366;2024-03-23T15:19:19;97474.75;;;4.71;75.61
14790;BME280;7486;51.010;10.366;2024-03-23T15:22:09;97435.66;;;4.55;75.48
14790;BME280;7486;51.010;10.366;2024-03-23T15:24:57;97462.69;;;4.98;73.74
14790;BME280;7486;51.010;10.366;2024-03-23T15:27:46;97460.72;;;4.79;73.30
14790;BME280;7486;51.010;10.366;2024-03-23T15:30:30;97472.81;;;4.80;73.14
14790;BME280;7486;51.010;10.366;2024-03-23T15:33:15;97476.88;;;4.82;72.03
14790;BME280;7486;51.010;10.366;2024-03-23T15:36:03;97472.81;;;4.58;71.60
14790;BME280;7486;51.010;10.366;2024-03-23T15:38:48;97471.03;;;4.44;71.42
14790;BME280;7486;51.010;10.366;2024-03-23T15:41:32;97475.81;;;4.55;70.37
14790;BME280;7486;51.010;10.366;2024-03-23T15:44:18;97460.69;;;4.57;69.52
14790;BME280;7486;51.010;10.366;2024-03-23T15:47:02;97464.94;;;4.58;68.19
14790;BME280;7486;51.010;10.366;2024-03-23T15:49:47;97466.41;;;4.46;67.56
14790;BME280;7486;51.010;10.366;2024-03-23T15:52:32;97454.47;;;4.08;69.60
14790;BME280;7486;51.010;10.366;2024-03-23T15:55:17;97451.38;;;4.19;68.97